Gulf Bridge — A8JM5 — position and weather

sailwx.info

Track history (hours):
 
Tides and Currents Weather Stations Pressure Air Temp Water Temp Dewpoint Dewpoint Depression Visibility Wind Speed Wind Dir Waves Ship Positions

Gulf Bridge

Last reported at 2015-May-22 17:04 UTC. Time now 2015-May-27 05:50 UTC.
Position N 01°16' E 104°12'.

Length 213 m; beam 32.2 m; draft 11.5 m.

Type: Cargo ship. MMSI: 636091115.

Date/timePositionNaut miles runAvg speedWind from/ knotsBaromVisibWave heightAir tempDewpointWater temp
2015-May-22 17:04N 01°16' E 104°12'914.3
2015-May-22 16:27N 01°15' E 104°03'1313.6
2015-May-22 15:30N 01°11' E 103°51'8812.1
2015-May-22 08:17N 01°47' E 102°31'1114.3
2015-May-22 07:33N 01°51' E 102°21'1414.4
2015-May-22 06:33N 01°59' E 102°09'21 0.7
2015-May-21 00:24N 02°15' E 101°56'1517.3
2015-May-20 23:33N 02°05' E 102°07'1817.6
2015-May-20 22:33N 01°55' E 102°22'1918.6
2015-May-20 21:33N 01°47' E 102°39'1918.9
2015-May-20 20:32N 01°38' E 102°56'5215.3
2015-May-20 17:09N 01°14' E 103°42'6 9.5
2015-May-20 16:33N 01°16' E 103°47'0 0.2
2015-May-20 15:33N 01°16' E 103°47'0 0.0
2015-May-20 14:33N 01°16' E 103°47'0 0.0
2015-May-20 13:33N 01°16' E 103°47'0 0.0
2015-May-20 12:33N 01°16' E 103°47'0 0.0
2015-May-20 11:33N 01°16' E 103°47'0 0.0
2015-May-20 10:33N 01°16' E 103°47'0 0.0
2015-May-20 09:33N 01°16' E 103°47'0 0.0
2015-May-20 08:33N 01°16' E 103°47'0 0.0
2015-May-20 07:33N 01°16' E 103°47'0 0.0
2015-May-20 06:33N 01°16' E 103°47'0 0.0
2015-May-20 05:33N 01°16' E 103°47'0 0.0
2015-May-20 04:33N 01°16' E 103°47'0 0.0
2015-May-20 03:33N 01°16' E 103°47'0 0.0
2015-May-20 02:33N 01°16' E 103°47'0 0.0
2015-May-20 01:33N 01°16' E 103°47'0 0.1
2015-May-20 00:33N 01°16' E 103°46'0 0.1
2015-May-19 23:33N 01°16' E 103°47'2 1.6
2015-May-19 22:33N 01°15' E 103°47'7 7.1
2015-May-19 21:33N 01°14' E 103°54'7 7.4
2015-May-19 20:33N 01°16' E 104°01'8 8.5
2015-May-19 19:33N 01°17' E 104°09'69113.5
2015-May-17 16:17S 05°43' E 113°19'1415.0
2015-May-17 15:21S 05°51' E 113°30'1215.1
2015-May-17 14:32S 05°59' E 113°40'  
Track history (hours):
 
Tides and Currents Weather Stations Pressure Air Temp Water Temp Dewpoint Dewpoint Depression Visibility Wind Speed Wind Dir Waves Ship Positions

Gulf Bridge

Last reported at 2015-May-22 17:04 UTC. Time now 2015-May-27 05:50 UTC.
Position N 01°16' E 104°12'.

Length 213 m; beam 32.2 m; draft 11.5 m.

Type: Cargo ship. MMSI: 636091115.

Date/timePositionNaut miles runAvg speedWind from/ knotsBaromVisibWave heightAir tempDewpointWater temp
2015-May-22 17:04N 01°16' E 104°12'914.3
2015-May-22 16:27N 01°15' E 104°03'1313.6
2015-May-22 15:30N 01°11' E 103°51'8812.1
2015-May-22 08:17N 01°47' E 102°31'1114.3
2015-May-22 07:33N 01°51' E 102°21'1414.4
2015-May-22 06:33N 01°59' E 102°09'21 0.7
2015-May-21 00:24N 02°15' E 101°56'1517.3
2015-May-20 23:33N 02°05' E 102°07'1817.6
2015-May-20 22:33N 01°55' E 102°22'1918.6
2015-May-20 21:33N 01°47' E 102°39'1918.9
2015-May-20 20:32N 01°38' E 102°56'5215.3
2015-May-20 17:09N 01°14' E 103°42'6 9.5
2015-May-20 16:33N 01°16' E 103°47'0 0.2
2015-May-20 15:33N 01°16' E 103°47'0 0.0
2015-May-20 14:33N 01°16' E 103°47'0 0.0
2015-May-20 13:33N 01°16' E 103°47'0 0.0
2015-May-20 12:33N 01°16' E 103°47'0 0.0
2015-May-20 11:33N 01°16' E 103°47'0 0.0
2015-May-20 10:33N 01°16' E 103°47'0 0.0
2015-May-20 09:33N 01°16' E 103°47'0 0.0
2015-May-20 08:33N 01°16' E 103°47'0 0.0
2015-May-20 07:33N 01°16' E 103°47'0 0.0
2015-May-20 06:33N 01°16' E 103°47'0 0.0
2015-May-20 05:33N 01°16' E 103°47'0 0.0
2015-May-20 04:33N 01°16' E 103°47'0 0.0
2015-May-20 03:33N 01°16' E 103°47'0 0.0
2015-May-20 02:33N 01°16' E 103°47'0 0.0
2015-May-20 01:33N 01°16' E 103°47'0 0.1
2015-May-20 00:33N 01°16' E 103°46'0 0.1
2015-May-19 23:33N 01°16' E 103°47'2 1.6
2015-May-19 22:33N 01°15' E 103°47'7 7.1
2015-May-19 21:33N 01°14' E 103°54'7 7.4
2015-May-19 20:33N 01°16' E 104°01'8 8.5
2015-May-19 19:33N 01°17' E 104°09'69113.5
2015-May-17 16:17S 05°43' E 113°19'1415.0
2015-May-17 15:21S 05°51' E 113°30'1215.1
2015-May-17 14:32S 05°59' E 113°40'  

Dump ship's entire track history